sensor_id;sensor_type;location;lat;lon;timestamp;pressure;altitude;pressure_sealevel;temperature
23208;BMP180;11773;52.570;13.052;2023-03-01T00:01:59;102816.00;;;5.40
23208;BMP180;11773;52.570;13.052;2023-03-01T00:04:29;102823.00;;;5.40
23208;BMP180;11773;52.570;13.052;2023-03-01T00:06:59;102825.00;;;5.30
23208;BMP180;11773;52.570;13.052;2023-03-01T00:09:28;102823.00;;;5.30
23208;BMP180;11773;52.570;13.052;2023-03-01T00:11:57;102815.00;;;5.30
23208;BMP180;11773;52.570;13.052;2023-03-01T00:14:27;102807.00;;;5.20
23208;BMP180;11773;52.570;13.052;2023-03-01T00:16:57;102813.00;;;5.20
23208;BMP180;11773;52.570;13.052;2023-03-01T00:19:27;102812.00;;;5.20
23208;BMP180;11773;52.570;13.052;2023-03-01T00:21:56;102802.00;;;5.20
23208;BMP180;11773;52.570;13.052;2023-03-01T00:24:26;102794.00;;;5.20
23208;BMP180;11773;52.570;13.052;2023-03-01T00:26:56;102804.00;;;5.20
23208;BMP180;11773;52.570;13.052;2023-03-01T00:29:26;102798.00;;;5.20
23208;BMP180;11773;52.570;13.052;2023-03-01T00:31:55;102795.00;;;5.20
23208;BMP180;11773;52.570;13.052;2023-03-01T00:34:24;102794.00;;;5.20
23208;BMP180;11773;52.570;13.052;2023-03-01T00:36:54;102791.00;;;5.20
23208;BMP180;11773;52.570;13.052;2023-03-01T00:39:23;102791.00;;;5.10
23208;BMP180;11773;52.570;13.052;2023-03-01T00:41:53;102792.00;;;5.10
23208;BMP180;11773;52.570;13.052;2023-03-01T00:44:22;102794.00;;;5.10
23208;BMP180;11773;52.570;13.052;2023-03-01T00:46:52;102795.00;;;5.10
23208;BMP180;11773;52.570;13.052;2023-03-01T00:49:21;102801.00;;;5.10
23208;BMP180;11773;52.570;13.052;2023-03-01T00:51:52;102795.00;;;5.10
23208;BMP180;11773;52.570;13.052;2023-03-01T00:54:22;102790.00;;;5.00
23208;BMP180;11773;52.570;13.052;2023-03-01T00:56:51;102792.00;;;5.00
23208;BMP180;11773;52.570;13.052;2023-03-01T00:59:21;102789.00;;;5.00
23208;BMP180;11773;52.570;13.052;2023-03-01T01:01:50;102783.00;;;5.00
23208;BMP180;11773;52.570;13.052;2023-03-01T01:04:20;102776.00;;;5.00
23208;BMP180;11773;52.570;13.052;2023-03-01T01:06:50;102777.00;;;5.00
23208;BMP180;11773;52.570;13.052;2023-03-01T01:09:20;102777.00;;;5.00
23208;BMP180;11773;52.570;13.052;2023-03-01T01:11:51;102774.00;;;5.00
23208;BMP180;11773;52.570;13.052;2023-03-01T01:14:21;102760.00;;;5.00
23208;BMP180;11773;52.570;13.052;2023-03-01T01:16:50;102781.00;;;5.00
23208;BMP180;11773;52.570;13.052;2023-03-01T01:19:20;102762.00;;;4.90
23208;BMP180;11773;52.570;13.052;2023-03-01T01:21:50;102768.00;;;4.90
23208;BMP180;11773;52.570;13.052;2023-03-01T01:24:20;102766.00;;;4.90
23208;BMP180;11773;52.570;13.052;2023-03-01T01:26:49;102760.00;;;4.90
23208;BMP180;11773;52.570;13.052;2023-03-01T01:29:19;102751.00;;;4.80
23208;BMP180;11773;52.570;13.052;2023-03-01T01:31:48;102754.00;;;4.80
23208;BMP180;11773;52.570;13.052;2023-03-01T01:34:21;102750.00;;;4.80
23208;BMP180;11773;52.570;13.052;2023-03-01T01:36:52;102754.00;;;4.80
23208;BMP180;11773;52.570;13.052;2023-03-01T01:39:23;102738.00;;;4.70
23208;BMP180;11773;52.570;13.052;2023-03-01T01:41:52;102737.00;;;4.70
23208;BMP180;11773;52.570;13.052;2023-03-01T01:44:27;102729.00;;;4.70
23208;BMP180;11773;52.570;13.052;2023-03-01T01:47:18;102724.00;;;4.70
23208;BMP180;11773;52.570;13.052;2023-03-01T01:49:55;102733.00;;;4.70
23208;BMP180;11773;52.570;13.052;2023-03-01T01:52:29;102725.00;;;4.60
23208;BMP180;11773;52.570;13.052;2023-03-01T01:55:16;102719.00;;;4.60
23208;BMP180;11773;52.570;13.052;2023-03-01T01:58:02;102713.00;;;4.60
23208;BMP180;11773;52.570;13.052;2023-03-01T02:00:31;102709.00;;;4.60
23208;BMP180;11773;52.570;13.052;2023-03-01T02:03:13;102713.00;;;4.60
23208;BMP180;11773;52.570;13.052;2023-03-01T02:06:10;102718.00;;;4.60
23208;BMP180;11773;52.570;13.052;2023-03-01T02:08:38;102728.00;;;4.60
23208;BMP180;11773;52.570;13.052;2023-03-01T02:11:11;102735.00;;;4.60
23208;BMP180;11773;52.570;13.052;2023-03-01T02:13:43;102727.00;;;4.50
23208;BMP180;11773;52.570;13.052;2023-03-01T02:16:16;102733.00;;;4.50
23208;BMP180;11773;52.570;13.052;2023-03-01T02:18:46;102736.00;;;4.50
23208;BMP180;11773;52.570;13.052;2023-03-01T02:21:42;102724.00;;;4.50
23208;BMP180;11773;52.570;13.052;2023-03-01T02:24:54;102723.00;;;4.40
23208;BMP180;11773;52.570;13.052;2023-03-01T02:27:26;102724.00;;;4.30
23208;BMP180;11773;52.570;13.052;2023-03-01T02:29:55;102730.00;;;4.30
23208;BMP180;11773;52.570;13.052;2023-03-01T02:36:04;102735.00;;;4.10
23208;BMP180;11773;52.570;13.052;2023-03-01T02:38:34;102743.00;;;4.10
23208;BMP180;11773;52.570;13.052;2023-03-01T02:41:06;102751.00;;;4.10
23208;BMP180;11773;52.570;13.052;2023-03-01T02:43:36;102733.00;;;4.10
23208;BMP180;11773;52.570;13.052;2023-03-01T02:46:14;102738.00;;;4.10
23208;BMP180;11773;52.570;13.052;2023-03-01T02:48:49;102738.00;;;4.10
23208;BMP180;11773;52.570;13.052;2023-03-01T02:51:56;102734.00;;;4.00
23208;BMP180;11773;52.570;13.052;2023-03-01T02:57:21;102731.00;;;3.90
23208;BMP180;11773;52.570;13.052;2023-03-01T02:59:54;102729.00;;;3.90
23208;BMP180;11773;52.570;13.052;2023-03-01T03:02:27;102719.00;;;3.90
23208;BMP180;11773;52.570;13.052;2023-03-01T03:05:25;102719.00;;;3.90
23208;BMP180;11773;52.570;13.052;2023-03-01T03:07:51;102718.00;;;3.80
23208;BMP180;11773;52.570;13.052;2023-03-01T03:10:28;102711.00;;;3.80
23208;BMP180;11773;52.570;13.052;2023-03-01T03:13:04;102718.00;;;3.80
23208;BMP180;11773;52.570;13.052;2023-03-01T03:15:34;102733.00;;;3.80
23208;BMP180;11773;52.570;13.052;2023-03-01T03:18:11;102726.00;;;3.80
23208;BMP180;11773;52.570;13.052;2023-03-01T03:20:43;102726.00;;;3.80
23208;BMP180;11773;52.570;13.052;2023-03-01T03:23:13;102716.00;;;3.80
23208;BMP180;11773;52.570;13.052;2023-03-01T03:25:42;102718.00;;;3.80
23208;BMP180;11773;52.570;13.052;2023-03-01T03:28:12;102712.00;;;3.90
23208;BMP180;11773;52.570;13.052;2023-03-01T03:30:42;102704.00;;;3.90
23208;BMP180;11773;52.570;13.052;2023-03-01T03:33:13;102703.00;;;3.90
23208;BMP180;11773;52.570;13.052;2023-03-01T03:35:46;102706.00;;;3.90
23208;BMP180;11773;52.570;13.052;2023-03-01T03:38:19;102700.00;;;3.90
23208;BMP180;11773;52.570;13.052;2023-03-01T03:40:59;102708.00;;;3.80
23208;BMP180;11773;52.570;13.052;2023-03-01T03:43:24;102700.00;;;3.80
23208;BMP180;11773;52.570;13.052;2023-03-01T03:45:53;102700.00;;;3.80
23208;BMP180;11773;52.570;13.052;2023-03-01T03:48:25;102707.00;;;3.80
23208;BMP180;11773;52.570;13.052;2023-03-01T03:50:56;102691.00;;;3.80
23208;BMP180;11773;52.570;13.052;2023-03-01T03:53:28;102681.00;;;3.80
23208;BMP180;11773;52.570;13.052;2023-03-01T03:55:58;102681.00;;;3.70
23208;BMP180;11773;52.570;13.052;2023-03-01T03:58:27;102675.00;;;3.70
23208;BMP180;11773;52.570;13.052;2023-03-01T04:00:58;102676.00;;;3.70
23208;BMP180;11773;52.570;13.052;2023-03-01T04:03:29;102674.00;;;3.70
23208;BMP180;11773;52.570;13.052;2023-03-01T04:06:02;102676.00;;;3.70
23208;BMP180;11773;52.570;13.052;2023-03-01T04:08:32;102669.00;;;3.70
23208;BMP180;11773;52.570;13.052;2023-03-01T04:11:04;102671.00;;;3.60
23208;BMP180;11773;52.570;13.052;2023-03-01T04:13:55;102665.00;;;3.60
23208;BMP180;11773;52.570;13.052;2023-03-01T04:16:26;102688.00;;;3.60
23208;BMP180;11773;52.570;13.052;2023-03-01T04:18:56;102685.00;;;3.60
23208;BMP180;11773;52.570;13.052;2023-03-01T04:21:27;102678.00;;;3.60
23208;BMP180;11773;52.570;13.052;2023-03-01T04:23:56;102678.00;;;3.60
23208;BMP180;11773;52.570;13.052;2023-03-01T04:26:25;102692.00;;;3.60
23208;BMP180;11773;52.570;13.052;2023-03-01T04:28:55;102679.00;;;3.60
23208;BMP180;11773;52.570;13.052;2023-03-01T04:31:25;102689.00;;;3.60
23208;BMP180;11773;52.570;13.052;2023-03-01T04:33:56;102679.00;;;3.50
23208;BMP180;11773;52.570;13.052;2023-03-01T04:36:28;102692.00;;;3.50
23208;BMP180;11773;52.570;13.052;2023-03-01T04:38:59;102681.00;;;3.50
23208;BMP180;11773;52.570;13.052;2023-03-01T04:41:28;102681.00;;;3.40
23208;BMP180;11773;52.570;13.052;2023-03-01T04:43:58;102680.00;;;3.40
23208;BMP180;11773;52.570;13.052;2023-03-01T04:46:28;102676.00;;;3.40
23208;BMP180;11773;52.570;13.052;2023-03-01T04:48:58;102676.00;;;3.40
23208;BMP180;11773;52.570;13.052;2023-03-01T04:51:28;102676.00;;;3.40
23208;BMP180;11773;52.570;13.052;2023-03-01T04:53:58;102686.00;;;3.40
23208;BMP180;11773;52.570;13.052;2023-03-01T04:56:28;102683.00;;;3.40
23208;BMP180;11773;52.570;13.052;2023-03-01T04:58:59;102671.00;;;3.30
23208;BMP180;11773;52.570;13.052;2023-03-01T05:01:29;102681.00;;;3.40
23208;BMP180;11773;52.570;13.052;2023-03-01T05:03:58;102688.00;;;3.30
23208;BMP180;11773;52.570;13.052;2023-03-01T05:06:29;102670.00;;;3.30
23208;BMP180;11773;52.570;13.052;2023-03-01T05:08:59;102679.00;;;3.30
23208;BMP180;11773;52.570;13.052;2023-03-01T05:11:29;102674.00;;;3.30
23208;BMP180;11773;52.570;13.052;2023-03-01T05:14:00;102672.00;;;3.30
23208;BMP180;11773;52.570;13.052;2023-03-01T05:16:30;102673.00;;;3.30
23208;BMP180;11773;52.570;13.052;2023-03-01T05:19:01;102668.00;;;3.30
23208;BMP180;11773;52.570;13.052;2023-03-01T05:21:33;102674.00;;;3.30
23208;BMP180;11773;52.570;13.052;2023-03-01T05:24:02;102671.00;;;3.20
23208;BMP180;11773;52.570;13.052;2023-03-01T05:26:32;102676.00;;;3.30
23208;BMP180;11773;52.570;13.052;2023-03-01T05:29:01;102676.00;;;3.20
23208;BMP180;11773;52.570;13.052;2023-03-01T05:31:31;102656.00;;;3.20
23208;BMP180;11773;52.570;13.052;2023-03-01T05:34:00;102669.00;;;3.20
23208;BMP180;11773;52.570;13.052;2023-03-01T05:36:30;102661.00;;;3.20
23208;BMP180;11773;52.570;13.052;2023-03-01T05:39:00;102662.00;;;3.20
23208;BMP180;11773;52.570;13.052;2023-03-01T05:41:30;102674.00;;;3.20
23208;BMP180;11773;52.570;13.052;2023-03-01T05:43:59;102662.00;;;3.20
23208;BMP180;11773;52.570;13.052;2023-03-01T05:46:29;102664.00;;;3.20
23208;BMP180;11773;52.570;13.052;2023-03-01T05:48:59;102660.00;;;3.10
23208;BMP180;11773;52.570;13.052;2023-03-01T05:51:28;102654.00;;;3.10
23208;BMP180;11773;52.570;13.052;2023-03-01T05:53:58;102650.00;;;3.10
23208;BMP180;11773;52.570;13.052;2023-03-01T05:56:27;102656.00;;;3.10
23208;BMP180;11773;52.570;13.052;2023-03-01T05:58:58;102648.00;;;3.10
23208;BMP180;11773;52.570;13.052;2023-03-01T06:01:27;102651.00;;;3.10
23208;BMP180;11773;52.570;13.052;2023-03-01T06:03:57;102653.00;;;3.10
23208;BMP180;11773;52.570;13.052;2023-03-01T06:06:27;102662.00;;;3.00
23208;BMP180;11773;52.570;13.052;2023-03-01T06:08:56;102659.00;;;3.00
23208;BMP180;11773;52.570;13.052;2023-03-01T06:11:26;102665.00;;;3.00
23208;BMP180;11773;52.570;13.052;2023-03-01T06:13:56;102682.00;;;3.00
23208;BMP180;11773;52.570;13.052;2023-03-01T06:16:25;102661.00;;;2.90
23208;BMP180;11773;52.570;13.052;2023-03-01T06:18:55;102660.00;;;2.90
23208;BMP180;11773;52.570;13.052;2023-03-01T06:21:24;102654.00;;;2.90
23208;BMP180;11773;52.570;13.052;2023-03-01T06:23:53;102657.00;;;2.90
23208;BMP180;11773;52.570;13.052;2023-03-01T06:26:23;102653.00;;;2.90
23208;BMP180;11773;52.570;13.052;2023-03-01T06:28:52;102654.00;;;2.90
23208;BMP180;11773;52.570;13.052;2023-03-01T06:31:22;102653.00;;;2.90
23208;BMP180;11773;52.570;13.052;2023-03-01T06:33:51;102655.00;;;2.90
23208;BMP180;11773;52.570;13.052;2023-03-01T06:36:21;102656.00;;;2.90
23208;BMP180;11773;52.570;13.052;2023-03-01T06:38:50;102654.00;;;2.90
23208;BMP180;11773;52.570;13.052;2023-03-01T06:41:20;102655.00;;;3.00
23208;BMP180;11773;52.570;13.052;2023-03-01T06:43:49;102667.00;;;3.00
23208;BMP180;11773;52.570;13.052;2023-03-01T06:46:19;102667.00;;;3.00
23208;BMP180;11773;52.570;13.052;2023-03-01T06:48:48;102662.00;;;3.10
23208;BMP180;11773;52.570;13.052;2023-03-01T06:51:19;102674.00;;;3.10
23208;BMP180;11773;52.570;13.052;2023-03-01T06:53:49;102672.00;;;3.20
23208;BMP180;11773;52.570;13.052;2023-03-01T06:56:18;102677.00;;;3.20
23208;BMP180;11773;52.570;13.052;2023-03-01T06:58:48;102680.00;;;3.30
23208;BMP180;11773;52.570;13.052;2023-03-01T07:01:17;102685.00;;;3.40
23208;BMP180;11773;52.570;13.052;2023-03-01T07:03:47;102677.00;;;3.50
23208;BMP180;11773;52.570;13.052;2023-03-01T07:06:16;102679.00;;;3.50
23208;BMP180;11773;52.570;13.052;2023-03-01T07:08:46;102672.00;;;3.60
23208;BMP180;11773;52.570;13.052;2023-03-01T07:11:16;102665.00;;;3.70
23208;BMP180;11773;52.570;13.052;2023-03-01T07:13:45;102676.00;;;3.70
23208;BMP180;11773;52.570;13.052;2023-03-01T07:16:15;102667.00;;;3.70
23208;BMP180;11773;52.570;13.052;2023-03-01T07:18:44;102674.00;;;3.70
23208;BMP180;11773;52.570;13.052;2023-03-01T07:21:15;102681.00;;;3.70
23208;BMP180;11773;52.570;13.052;2023-03-01T07:23:49;102674.00;;;3.80
23208;BMP180;11773;52.570;13.052;2023-03-01T07:26:18;102668.00;;;3.80
23208;BMP180;11773;52.570;13.052;2023-03-01T07:28:48;102682.00;;;3.80
23208;BMP180;11773;52.570;13.052;2023-03-01T07:31:17;102668.00;;;3.90
23208;BMP180;11773;52.570;13.052;2023-03-01T07:33:47;102684.00;;;3.90
23208;BMP180;11773;52.570;13.052;2023-03-01T07:36:18;102679.00;;;3.90
23208;BMP180;11773;52.570;13.052;2023-03-01T07:38:47;102679.00;;;3.90
23208;BMP180;11773;52.570;13.052;2023-03-01T07:41:17;102675.00;;;4.00
23208;BMP180;11773;52.570;13.052;2023-03-01T07:43:47;102670.00;;;4.00
23208;BMP180;11773;52.570;13.052;2023-03-01T07:46:16;102665.00;;;4.00
23208;BMP180;11773;52.570;13.052;2023-03-01T07:48:47;102667.00;;;4.10
23208;BMP180;11773;52.570;13.052;2023-03-01T07:51:17;102672.00;;;4.10
23208;BMP180;11773;52.570;13.052;2023-03-01T07:53:48;102684.00;;;4.10
23208;BMP180;11773;52.570;13.052;2023-03-01T07:56:17;102675.00;;;4.10
23208;BMP180;11773;52.570;13.052;2023-03-01T07:58:47;102671.00;;;4.10
23208;BMP180;11773;52.570;13.052;2023-03-01T08:01:21;102683.00;;;4.20
23208;BMP180;11773;52.570;13.052;2023-03-01T08:03:50;102672.00;;;4.20
23208;BMP180;11773;52.570;13.052;2023-03-01T08:06:20;102681.00;;;4.30
23208;BMP180;11773;52.570;13.052;2023-03-01T08:08:49;102677.00;;;4.40
23208;BMP180;11773;52.570;13.052;2023-03-01T08:11:18;102669.00;;;4.40
23208;BMP180;11773;52.570;13.052;2023-03-01T08:13:49;102670.00;;;4.40
23208;BMP180;11773;52.570;13.052;2023-03-01T08:16:20;102661.00;;;4.50
23208;BMP180;11773;52.570;13.052;2023-03-01T08:18:50;102678.00;;;4.60
23208;BMP180;11773;52.570;13.052;2023-03-01T08:21:19;102659.00;;;4.60
23208;BMP180;11773;52.570;13.052;2023-03-01T08:23:49;102664.00;;;4.70
23208;BMP180;11773;52.570;13.052;2023-03-01T08:26:20;102666.00;;;4.70
23208;BMP180;11773;52.570;13.052;2023-03-01T08:28:50;102660.00;;;4.80
23208;BMP180;11773;52.570;13.052;2023-03-01T08:31:30;102666.00;;;4.90
23208;BMP180;11773;52.570;13.052;2023-03-01T08:34:01;102652.00;;;5.00
23208;BMP180;11773;52.570;13.052;2023-03-01T08:36:37;102656.00;;;5.00
23208;BMP180;11773;52.570;13.052;2023-03-01T08:39:13;102657.00;;;5.10
23208;BMP180;11773;52.570;13.052;2023-03-01T08:41:43;102652.00;;;5.20
23208;BMP180;11773;52.570;13.052;2023-03-01T08:44:16;102659.00;;;5.30
23208;BMP180;11773;52.570;13.052;2023-03-01T08:46:46;102657.00;;;5.40
23208;BMP180;11773;52.570;13.052;2023-03-01T08:49:18;102654.00;;;5.40
23208;BMP180;11773;52.570;13.052;2023-03-01T08:51:48;102655.00;;;5.50
23208;BMP180;11773;52.570;13.052;2023-03-01T08:54:20;102659.00;;;5.60
23208;BMP180;11773;52.570;13.052;2023-03-01T08:56:50;102650.00;;;5.70
23208;BMP180;11773;52.570;13.052;2023-03-01T08:59:19;102650.00;;;5.80
23208;BMP180;11773;52.570;13.052;2023-03-01T09:01:49;102652.00;;;5.90
23208;BMP180;11773;52.570;13.052;2023-03-01T09:04:18;102652.00;;;6.00
23208;BMP180;11773;52.570;13.052;2023-03-01T09:06:48;102651.00;;;6.00
23208;BMP180;11773;52.570;13.052;2023-03-01T09:09:18;102643.00;;;6.10
23208;BMP180;11773;52.570;13.052;2023-03-01T09:11:47;102644.00;;;6.20
23208;BMP180;11773;52.570;13.052;2023-03-01T09:14:18;102642.00;;;6.30
23208;BMP180;11773;52.570;13.052;2023-03-01T09:16:47;102629.00;;;6.40
23208;BMP180;11773;52.570;13.052;2023-03-01T09:19:17;102633.00;;;6.40
23208;BMP180;11773;52.570;13.052;2023-03-01T09:21:47;102639.00;;;6.50
23208;BMP180;11773;52.570;13.052;2023-03-01T09:24:24;102647.00;;;6.60
23208;BMP180;11773;52.570;13.052;2023-03-01T09:26:55;102644.00;;;6.70
23208;BMP180;11773;52.570;13.052;2023-03-01T09:29:25;102634.00;;;6.80
23208;BMP180;11773;52.570;13.052;2023-03-01T09:31:54;102645.00;;;6.90
23208;BMP180;11773;52.570;13.052;2023-03-01T09:34:24;102640.00;;;7.00
23208;BMP180;11773;52.570;13.052;2023-03-01T09:36:53;102638.00;;;7.10
23208;BMP180;11773;52.570;13.052;2023-03-01T09:39:23;102648.00;;;7.20
23208;BMP180;11773;52.570;13.052;2023-03-01T09:42:02;102629.00;;;7.30
23208;BMP180;11773;52.570;13.052;2023-03-01T09:45:04;102648.00;;;7.40
23208;BMP180;11773;52.570;13.052;2023-03-01T09:47:35;102640.00;;;7.50
23208;BMP180;11773;52.570;13.052;2023-03-01T09:50:17;102630.00;;;7.50
23208;BMP180;11773;52.570;13.052;2023-03-01T09:53:04;102657.00;;;7.60
23208;BMP180;11773;52.570;13.052;2023-03-01T09:55:44;102639.00;;;7.70
23208;BMP180;11773;52.570;13.052;2023-03-01T10:04:26;102635.00;;;7.90
23208;BMP180;11773;52.570;13.052;2023-03-01T10:09:45;102635.00;;;8.10
23208;BMP180;11773;52.570;13.052;2023-03-01T10:12:26;102652.00;;;8.20
23208;BMP180;11773;52.570;13.052;2023-03-01T10:15:36;102640.00;;;8.30
23208;BMP180;11773;52.570;13.052;2023-03-01T10:18:14;102639.00;;;8.30
23208;BMP180;11773;52.570;13.052;2023-03-01T10:21:01;102639.00;;;8.40
23208;BMP180;11773;52.570;13.052;2023-03-01T10:23:34;102642.00;;;8.50
23208;BMP180;11773;52.570;13.052;2023-03-01T10:29:12;102647.00;;;8.70
23208;BMP180;11773;52.570;13.052;2023-03-01T10:31:53;102638.00;;;8.70
23208;BMP180;11773;52.570;13.052;2023-03-01T10:34:39;102628.00;;;8.80
23208;BMP180;11773;52.570;13.052;2023-03-01T10:37:18;102618.00;;;8.80
23208;BMP180;11773;52.570;13.052;2023-03-01T10:40:01;102623.00;;;8.90
23208;BMP180;11773;52.570;13.052;2023-03-01T10:42:38;102625.00;;;9.00
23208;BMP180;11773;52.570;13.052;2023-03-01T10:45:39;102638.00;;;9.10
23208;BMP180;11773;52.570;13.052;2023-03-01T10:48:24;102615.00;;;9.10
23208;BMP180;11773;52.570;13.052;2023-03-01T10:51:05;102614.00;;;9.20
23208;BMP180;11773;52.570;13.052;2023-03-01T10:53:48;102615.00;;;9.30
23208;BMP180;11773;52.570;13.052;2023-03-01T10:56:16;102606.00;;;9.40
23208;BMP180;11773;52.570;13.052;2023-03-01T10:59:04;102605.00;;;9.50
23208;BMP180;11773;52.570;13.052;2023-03-01T11:01:35;102616.00;;;9.50
23208;BMP180;11773;52.570;13.052;2023-03-01T11:04:10;102600.00;;;9.60
23208;BMP180;11773;52.570;13.052;2023-03-01T11:06:41;102596.00;;;9.70
23208;BMP180;11773;52.570;13.052;2023-03-01T11:09:22;102594.00;;;9.70
23208;BMP180;11773;52.570;13.052;2023-03-01T11:11:57;102597.00;;;9.80
23208;BMP180;11773;52.570;13.052;2023-03-01T11:14:35;102591.00;;;9.90
23208;BMP180;11773;52.570;13.052;2023-03-01T11:22:53;102570.00;;;10.10
23208;BMP180;11773;52.570;13.052;2023-03-01T11:25:31;102588.00;;;10.20
23208;BMP180;11773;52.570;13.052;2023-03-01T11:28:04;102587.00;;;10.20
23208;BMP180;11773;52.570;13.052;2023-03-01T11:30:53;102570.00;;;10.30
23208;BMP180;11773;52.570;13.052;2023-03-01T11:38:47;102578.00;;;10.50
23208;BMP180;11773;52.570;13.052;2023-03-01T11:41:27;102582.00;;;10.60
23208;BMP180;11773;52.570;13.052;2023-03-01T11:44:05;102566.00;;;10.60
23208;BMP180;11773;52.570;13.052;2023-03-01T11:46:51;102570.00;;;10.70
23208;BMP180;11773;52.570;13.052;2023-03-01T11:49:59;102554.00;;;10.70
23208;BMP180;11773;52.570;13.052;2023-03-01T11:53:02;102561.00;;;10.70
23208;BMP180;11773;52.570;13.052;2023-03-01T11:56:08;102565.00;;;10.70
23208;BMP180;11773;52.570;13.052;2023-03-01T11:58:43;102580.00;;;10.80
23208;BMP180;11773;52.570;13.052;2023-03-01T12:04:15;102558.00;;;10.90
23208;BMP180;11773;52.570;13.052;2023-03-01T12:07:00;102553.00;;;10.90
23208;BMP180;11773;52.570;13.052;2023-03-01T12:09:49;102558.00;;;10.90
23208;BMP180;11773;52.570;13.052;2023-03-01T12:15:44;102558.00;;;11.00
23208;BMP180;11773;52.570;13.052;2023-03-01T12:18:30;102548.00;;;11.00
23208;BMP180;11773;52.570;13.052;2023-03-01T12:21:21;102540.00;;;11.10
23208;BMP180;11773;52.570;13.052;2023-03-01T12:27:09;102534.00;;;11.10
23208;BMP180;11773;52.570;13.052;2023-03-01T12:29:43;102546.00;;;11.20
23208;BMP180;11773;52.570;13.052;2023-03-01T12:32:40;102538.00;;;11.20
23208;BMP180;11773;52.570;13.052;2023-03-01T12:38:19;102523.00;;;11.30
23208;BMP180;11773;52.570;13.052;2023-03-01T12:41:10;102517.00;;;11.30
23208;BMP180;11773;52.570;13.052;2023-03-01T12:44:01;102513.00;;;11.40
23208;BMP180;11773;52.570;13.052;2023-03-01T12:46:38;102511.00;;;11.40
23208;BMP180;11773;52.570;13.052;2023-03-01T12:52:27;102499.00;;;11.50
23208;BMP180;11773;52.570;13.052;2023-03-01T12:54:54;102511.00;;;11.50
23208;BMP180;11773;52.570;13.052;2023-03-01T12:57:39;102502.00;;;11.60
23208;BMP180;11773;52.570;13.052;2023-03-01T13:00:25;102491.00;;;11.60
23208;BMP180;11773;52.570;13.052;2023-03-01T13:03:12;102493.00;;;11.70
23208;BMP180;11773;52.570;13.052;2023-03-01T13:08:34;102492.00;;;11.70
23208;BMP180;11773;52.570;13.052;2023-03-01T13:11:07;102488.00;;;11.70
23208;BMP180;11773;52.570;13.052;2023-03-01T13:13:37;102478.00;;;11.80
23208;BMP180;11773;52.570;13.052;2023-03-01T13:19:19;102482.00;;;11.80
23208;BMP180;11773;52.570;13.052;2023-03-01T13:21:52;102484.00;;;11.80
23208;BMP180;11773;52.570;13.052;2023-03-01T13:24:40;102473.00;;;11.80
23208;BMP180;11773;52.570;13.052;2023-03-01T13:27:24;102487.00;;;11.90
23208;BMP180;11773;52.570;13.052;2023-03-01T13:29:59;102480.00;;;11.90
23208;BMP180;11773;52.570;13.052;2023-03-01T13:32:34;102487.00;;;11.90
23208;BMP180;11773;52.570;13.052;2023-03-01T13:37:50;102480.00;;;12.00
23208;BMP180;11773;52.570;13.052;2023-03-01T13:42:55;102485.00;;;12.10
23208;BMP180;11773;52.570;13.052;2023-03-01T13:45:39;102466.00;;;12.10
23208;BMP180;11773;52.570;13.052;2023-03-01T13:48:20;102470.00;;;12.10
23208;BMP180;11773;52.570;13.052;2023-03-01T13:51:03;102467.00;;;12.10
23208;BMP180;11773;52.570;13.052;2023-03-01T13:53:27;102451.00;;;12.20
23208;BMP180;11773;52.570;13.052;2023-03-01T13:56:10;102471.00;;;12.20
23208;BMP180;11773;52.570;13.052;2023-03-01T13:58:58;102452.00;;;12.20
23208;BMP180;11773;52.570;13.052;2023-03-01T14:01:35;102457.00;;;12.20
23208;BMP180;11773;52.570;13.052;2023-03-01T14:04:21;102458.00;;;12.20
23208;BMP180;11773;52.570;13.052;2023-03-01T14:06:51;102441.00;;;12.20
23208;BMP180;11773;52.570;13.052;2023-03-01T14:09:27;102434.00;;;12.20
23208;BMP180;11773;52.570;13.052;2023-03-01T14:15:17;102436.00;;;12.20
23208;BMP180;11773;52.570;13.052;2023-03-01T14:18:25;102424.00;;;12.20
23208;BMP180;11773;52.570;13.052;2023-03-01T14:20:55;102420.00;;;12.10
23208;BMP180;11773;52.570;13.052;2023-03-01T14:23:25;102433.00;;;12.20
23208;BMP180;11773;52.570;13.052;2023-03-01T14:25:57;102418.00;;;12.20
23208;BMP180;11773;52.570;13.052;2023-03-01T14:28:30;102412.00;;;12.20
23208;BMP180;11773;52.570;13.052;2023-03-01T14:31:02;102412.00;;;12.20
23208;BMP180;11773;52.570;13.052;2023-03-01T14:33:35;102402.00;;;12.30
23208;BMP180;11773;52.570;13.052;2023-03-01T14:36:13;102403.00;;;12.30
23208;BMP180;11773;52.570;13.052;2023-03-01T14:38:47;102408.00;;;12.30
23208;BMP180;11773;52.570;13.052;2023-03-01T14:41:24;102407.00;;;12.30
23208;BMP180;11773;52.570;13.052;2023-03-01T14:43:58;102409.00;;;12.40
23208;BMP180;11773;52.570;13.052;2023-03-01T14:46:38;102415.00;;;12.40
23208;BMP180;11773;52.570;13.052;2023-03-01T14:49:27;102399.00;;;12.40
23208;BMP180;11773;52.570;13.052;2023-03-01T14:52:19;102402.00;;;12.40
23208;BMP180;11773;52.570;13.052;2023-03-01T14:54:55;102401.00;;;12.40
23208;BMP180;11773;52.570;13.052;2023-03-01T14:57:26;102399.00;;;12.40
23208;BMP180;11773;52.570;13.052;2023-03-01T15:00:02;102397.00;;;12.40
23208;BMP180;11773;52.570;13.052;2023-03-01T15:02:37;102399.00;;;12.40
23208;BMP180;11773;52.570;13.052;2023-03-01T15:05:09;102392.00;;;12.40
23208;BMP180;11773;52.570;13.052;2023-03-01T15:07:42;102397.00;;;12.40
23208;BMP180;11773;52.570;13.052;2023-03-01T15:10:20;102387.00;;;12.50
23208;BMP180;11773;52.570;13.052;2023-03-01T15:12:50;102393.00;;;12.40
23208;BMP180;11773;52.570;13.052;2023-03-01T15:18:19;102406.00;;;12.50
23208;BMP180;11773;52.570;13.052;2023-03-01T15:20:51;102389.00;;;12.40
23208;BMP180;11773;52.570;13.052;2023-03-01T15:23:29;102387.00;;;12.40
23208;BMP180;11773;52.570;13.052;2023-03-01T15:25:59;102377.00;;;12.40
23208;BMP180;11773;52.570;13.052;2023-03-01T15:28:35;102384.00;;;12.50
23208;BMP180;11773;52.570;13.052;2023-03-01T15:31:24;102397.00;;;12.50
23208;BMP180;11773;52.570;13.052;2023-03-01T15:34:24;102384.00;;;12.50
23208;BMP180;11773;52.570;13.052;2023-03-01T15:36:57;102387.00;;;12.40